Time;durP1;ratioP1;P1;durP2;ratioP2;P2;SDS_P1;SDS_P2;PMS_P1;PMS_P2;Temp;Humidity;BMP_temperature;BMP_pressure;BME280_temperature;BME280_humidity;BME280_pressure;Samples;Min_cycle;Max_cycle;Signal;HPM_P1;HPM_P2
2021/09/21 00:01:49;;;;;;;1.85;1.52;;;16.50;59.70;;;;;;5042573;28;20032;-82
2021/09/21 00:04:15;;;;;;;2.67;1.88;;;16.50;59.70;;;;;;5058746;28;20032;-81
2021/09/21 00:06:41;;;;;;;2.17;1.80;;;16.50;59.70;;;;;;5059007;28;20081;-81
2021/09/21 00:09:07;;;;;;;3.35;1.90;;;16.50;59.70;;;;;;5055129;28;20052;-83
2021/09/21 00:11:33;;;;;;;1.63;1.45;;;16.40;59.70;;;;;;5072071;28;20024;-81
2021/09/21 00:14:00;;;;;;;2.58;1.67;;;16.40;59.70;;;;;;5055707;28;20103;-80
2021/09/21 00:16:26;;;;;;;2.90;1.90;;;16.40;60.40;;;;;;5058976;28;20031;-80
2021/09/21 00:18:52;;;;;;;2.20;1.60;;;16.40;59.80;;;;;;5076712;28;20120;-80
2021/09/21 00:21:18;;;;;;;1.88;1.40;;;16.40;59.80;;;;;;5042981;28;20052;-80
2021/09/21 00:23:44;;;;;;;2.03;1.60;;;16.30;59.80;;;;;;5059291;28;20032;-80
2021/09/21 00:26:10;;;;;;;2.42;1.60;;;16.30;59.80;;;;;;5076026;28;20473;-81
2021/09/21 00:28:36;;;;;;;2.53;1.80;;;16.30;59.80;;;;;;5075639;28;20111;-81
2021/09/21 00:31:09;;;;;;;2.13;1.65;;;16.30;59.90;;;;;;5042750;28;20075;-80
2021/09/21 00:33:46;;;;;;;2.40;1.70;;;16.30;59.90;;;;;;5060757;28;20117;-81
2021/09/21 00:36:14;;;;;;;3.03;1.67;;;16.20;59.90;;;;;;5061166;28;20115;-80
2021/09/21 00:38:39;;;;;;;2.25;1.70;;;16.20;59.90;;;;;;5076220;28;20039;-81
2021/09/21 00:41:05;;;;;;;1.90;1.60;;;16.20;59.90;;;;;;5059063;28;20032;-81
2021/09/21 00:43:31;;;;;;;2.25;1.60;;;16.20;59.90;;;;;;5042676;28;20079;-80
2021/09/21 00:45:57;;;;;;;2.10;1.80;;;16.20;60.00;;;;;;5075827;28;20029;-82
2021/09/21 00:48:23;;;;;;;1.88;1.50;;;16.10;60.00;;;;;;5058964;28;20055;-80
2021/09/21 00:50:49;;;;;;;2.15;1.60;;;16.10;60.00;;;;;;5075661;28;20040;-80
2021/09/21 00:53:16;;;;;;;1.67;1.58;;;16.10;60.00;;;;;;5059089;28;20060;-79
2021/09/21 00:55:42;;;;;;;2.72;1.70;;;16.10;60.00;;;;;;5075766;28;20029;-80
2021/09/21 00:58:07;;;;;;;2.20;1.55;;;16.10;60.10;;;;;;5042543;28;20384;-80
2021/09/21 01:00:33;;;;;;;2.08;1.67;;;16.00;60.00;;;;;;5058811;28;20044;-80
2021/09/21 01:02:59;;;;;;;1.60;1.40;;;16.00;60.00;;;;;;5075527;28;20024;-82
2021/09/21 01:05:25;;;;;;;1.60;1.50;;;16.00;60.10;;;;;;5058971;28;20035;-80
2021/09/21 01:07:53;;;;;;;2.50;1.70;;;16.00;60.00;;;;;;5060166;28;20037;-80
2021/09/21 01:10:24;;;;;;;2.05;1.50;;;16.00;60.10;;;;;;5079236;28;20108;-81
2021/09/21 01:12:51;;;;;;;2.72;1.80;;;15.90;60.10;;;;;;5062842;28;20055;-80
2021/09/21 01:15:18;;;;;;;2.05;1.50;;;15.90;60.10;;;;;;5062281;28;20038;-80
2021/09/21 01:17:45;;;;;;;1.88;1.52;;;15.90;60.10;;;;;;5062018;28;20028;-80
2021/09/21 01:20:13;;;;;;;2.28;1.75;;;15.90;60.20;;;;;;5045234;28;20400;-80
2021/09/21 01:22:40;;;;;;;1.92;1.50;;;15.80;60.20;;;;;;5078587;28;20028;-80
2021/09/21 01:25:07;;;;;;;2.17;1.60;;;15.80;60.20;;;;;;5045044;28;20024;-80
2021/09/21 01:27:33;;;;;;;2.15;1.50;;;15.80;60.20;;;;;;5061110;28;20063;-81
2021/09/21 01:29:59;;;;;;;1.63;1.42;;;15.80;60.20;;;;;;5061713;28;20423;-80
2021/09/21 01:32:25;;;;;;;1.98;1.60;;;15.80;60.20;;;;;;5078757;28;20040;-80
2021/09/21 01:34:51;;;;;;;2.67;1.75;;;15.70;60.20;;;;;;5061575;28;20060;-80
2021/09/21 01:37:17;;;;;;;2.65;1.75;;;15.70;60.30;;;;;;5078028;28;20025;-80
2021/09/21 01:39:43;;;;;;;1.75;1.60;;;15.70;60.30;;;;;;5044814;28;20032;-80
2021/09/21 01:42:09;;;;;;;2.42;1.75;;;15.70;60.30;;;;;;5078222;28;20461;-80
2021/09/21 01:44:35;;;;;;;1.92;1.63;;;15.70;60.40;;;;;;5061636;28;20482;-80
2021/09/21 01:47:04;;;;;;;1.90;1.60;;;15.60;60.40;;;;;;5061355;28;20070;-80
2021/09/21 01:52:15;;;;;;;2.88;2.17;;;15.60;60.40;;;;;;5096413;28;20032;-80
2021/09/21 02:00:22;;;;;;;2.25;1.90;;;15.50;60.40;;;;;;5037040;28;20066;-80
2021/09/21 02:02:48;;;;;;;2.45;1.70;;;15.50;60.50;;;;;;5078106;28;20029;-81
2021/09/21 02:05:14;;;;;;;2.25;1.70;;;15.50;60.50;;;;;;5095457;28;20034;-80
2021/09/21 02:07:40;;;;;;;2.30;1.80;;;15.40;60.50;;;;;;5060568;28;20036;-80
2021/09/21 02:10:07;;;;;;;2.00;1.52;;;15.40;60.50;;;;;;5044579;28;20028;-83
2021/09/21 02:12:33;;;;;;;2.15;1.73;;;15.40;60.60;;;;;;5077969;28;20024;-80
2021/09/21 02:15:00;;;;;;;2.70;1.90;;;15.40;60.60;;;;;;5060799;28;20032;-80
2021/09/21 02:17:27;;;;;;;2.25;1.70;;;15.40;60.60;;;;;;5077316;28;20055;-80
2021/09/21 02:19:52;;;;;;;2.25;1.65;;;15.30;60.60;;;;;;5060786;28;20028;-80
2021/09/21 02:22:18;;;;;;;3.22;2.00;;;15.30;60.60;;;;;;5044059;28;20102;-80
2021/09/21 02:24:44;;;;;;;3.35;2.10;;;15.30;60.70;;;;;;5044853;28;20408;-80
2021/09/21 02:27:10;;;;;;;2.97;2.17;;;15.30;60.70;;;;;;5077396;28;20100;-80
2021/09/21 02:29:35;;;;;;;2.67;1.80;;;15.30;60.70;;;;;;5060477;28;20036;-80
2021/09/21 02:32:01;;;;;;;2.55;1.80;;;15.30;60.70;;;;;;5094925;28;20106;-81
2021/09/21 02:34:27;;;;;;;2.58;2.00;;;15.20;60.70;;;;;;5076883;28;20038;-80
2021/09/21 02:36:53;;;;;;;2.67;1.85;;;15.20;60.80;;;;;;5076840;28;20032;-80
2021/09/21 02:39:19;;;;;;;2.30;1.80;;;15.20;60.80;;;;;;5026546;28;20028;-79
2021/09/21 02:41:44;;;;;;;2.25;1.77;;;15.20;60.80;;;;;;5077407;28;20070;-80
2021/09/21 02:44:10;;;;;;;2.03;1.65;;;15.20;60.90;;;;;;5043500;28;20117;-79
2021/09/21 02:46:36;;;;;;;2.60;1.90;;;15.10;60.90;;;;;;5076710;28;20036;-80
2021/09/21 02:49:02;;;;;;;2.30;1.85;;;15.10;60.90;;;;;;5060783;28;20035;-80
2021/09/21 02:51:27;;;;;;;2.50;2.00;;;15.10;60.90;;;;;;5077458;28;20479;-80
2021/09/21 02:53:53;;;;;;;2.40;2.00;;;15.10;61.00;;;;;;5059898;28;20400;-80
2021/09/21 02:56:19;;;;;;;2.47;1.98;;;15.10;61.00;;;;;;5043583;28;20368;-80
2021/09/21 02:58:45;;;;;;;2.42;2.00;;;15.10;61.10;;;;;;5076601;28;20028;-82
2021/09/21 03:01:11;;;;;;;2.67;2.17;;;15.00;61.00;;;;;;5094897;28;20028;-81
2021/09/21 03:03:56;;;;;;;2.13;1.75;;;15.00;61.00;;;;;;5059890;28;20464;-80
2021/09/21 03:06:25;;;;;;;2.75;1.85;;;15.00;61.10;;;;;;5076681;28;20377;-81
2021/09/21 03:08:55;;;;;;;3.55;2.15;;;15.00;61.10;;;;;;5059650;28;20135;-80
2021/09/21 03:11:24;;;;;;;2.53;1.88;;;15.00;61.20;;;;;;5060489;28;20334;-81
2021/09/21 03:19:07;;;;;;;2.75;1.95;;;14.90;61.20;;;;;;5094555;28;20032;-80
2021/09/21 03:21:33;;;;;;;1.95;1.63;;;14.90;61.20;;;;;;5076052;28;20050;-80
2021/09/21 03:23:58;;;;;;;2.60;1.92;;;14.90;61.30;;;;;;5076010;28;20106;-81
2021/09/21 03:26:24;;;;;;;3.00;1.92;;;14.80;61.30;;;;;;5059364;28;20032;-80
2021/09/21 03:28:50;;;;;;;2.83;2.03;;;14.80;61.30;;;;;;5094019;28;20032;-80
2021/09/21 03:31:16;;;;;;;2.30;1.83;;;14.80;61.30;;;;;;5025993;28;20541;-81
2021/09/21 03:33:42;;;;;;;2.47;1.85;;;14.80;61.30;;;;;;5059477;28;20028;-81
2021/09/21 03:36:08;;;;;;;2.55;1.85;;;14.80;61.30;;;;;;5059320;28;20039;-81
2021/09/21 03:38:33;;;;;;;2.50;2.00;;;14.80;61.40;;;;;;5093992;28;20123;-80
2021/09/21 03:40:59;;;;;;;3.08;2.10;;;14.80;61.40;;;;;;5076387;28;20513;-80
2021/09/21 03:43:25;;;;;;;2.45;1.98;;;14.70;61.30;;;;;;5059334;28;20032;-80
2021/09/21 03:45:51;;;;;;;2.25;1.95;;;14.70;61.40;;;;;;5093610;28;20491;-81
2021/09/21 03:48:16;;;;;;;2.63;2.00;;;14.70;61.40;;;;;;5058893;28;20460;-81
2021/09/21 03:50:42;;;;;;;2.80;2.20;;;14.70;61.40;;;;;;5042332;28;20115;-80
2021/09/21 03:53:08;;;;;;;3.58;2.17;;;14.70;61.40;;;;;;5058884;28;20032;-81
2021/09/21 03:55:34;;;;;;;2.80;2.10;;;14.70;61.40;;;;;;5042243;28;20028;-82
2021/09/21 03:58:00;;;;;;;2.45;1.90;;;14.60;61.40;;;;;;5059193;28;20038;-80
2021/09/21 04:00:25;;;;;;;2.22;1.80;;;14.60;61.40;;;;;;5075606;28;20478;-80
2021/09/21 04:02:51;;;;;;;3.30;2.28;;;14.60;61.50;;;;;;5042277;28;20028;-82
2021/09/21 04:05:17;;;;;;;2.75;2.13;;;14.60;61.50;;;;;;5076057;28;20024;-80
2021/09/21 04:07:43;;;;;;;2.20;1.88;;;14.60;61.50;;;;;;5092861;28;20038;-79
2021/09/21 04:10:09;;;;;;;2.38;1.92;;;14.60;61.60;;;;;;5076192;28;20111;-80
2021/09/21 04:12:35;;;;;;;2.65;2.10;;;14.50;61.50;;;;;;5043071;28;20036;-78
2021/09/21 04:15:03;;;;;;;3.22;2.40;;;14.50;61.60;;;;;;5058730;28;20086;-79
2021/09/21 04:17:28;;;;;;;2.80;1.80;;;14.50;61.60;;;;;;5058361;28;20028;-79
2021/09/21 04:19:54;;;;;;;2.65;1.98;;;14.50;61.60;;;;;;5075776;28;20077;-78
2021/09/21 04:22:20;;;;;;;2.38;1.77;;;14.50;61.60;;;;;;5058674;28;20032;-79
2021/09/21 04:24:45;;;;;;;2.92;2.08;;;14.50;61.70;;;;;;5076025;28;20028;-78
2021/09/21 04:27:11;;;;;;;2.78;2.20;;;14.50;61.70;;;;;;5042054;28;20128;-78
2021/09/21 04:29:37;;;;;;;2.40;1.92;;;14.40;61.70;;;;;;5058627;28;20036;-78
2021/09/21 04:32:04;;;;;;;3.10;2.15;;;14.40;61.70;;;;;;5093403;28;20111;-78
2021/09/21 04:34:30;;;;;;;3.25;2.17;;;14.40;61.80;;;;;;5059251;28;20036;-80
2021/09/21 04:36:58;;;;;;;2.90;2.20;;;14.40;61.80;;;;;;5058348;28;20020;-78
2021/09/21 04:39:24;;;;;;;3.00;2.00;;;14.40;61.90;;;;;;5058734;28;20032;-80
2021/09/21 04:41:50;;;;;;;3.75;2.33;;;14.30;61.80;;;;;;5058892;28;20035;-78
2021/09/21 04:44:16;;;;;;;2.45;2.05;;;14.30;61.80;;;;;;5058764;28;20106;-82
2021/09/21 04:46:42;;;;;;;2.75;2.20;;;14.30;61.90;;;;;;5059060;28;20123;-77
2021/09/21 04:49:08;;;;;;;2.55;2.05;;;14.30;61.90;;;;;;5075700;28;20456;-77
2021/09/21 04:51:34;;;;;;;3.38;2.05;;;14.30;61.90;;;;;;5058392;28;20032;-77
2021/09/21 04:54:00;;;;;;;3.25;2.20;;;14.30;62.00;;;;;;5059150;28;20059;-78
2021/09/21 04:56:26;;;;;;;2.33;1.80;;;14.30;62.00;;;;;;5075036;28;20064;-79
2021/09/21 04:58:53;;;;;;;2.92;2.15;;;14.30;62.00;;;;;;5075710;28;20028;-79
2021/09/21 05:01:19;;;;;;;3.03;2.22;;;14.30;62.10;;;;;;5075927;28;20036;-83
2021/09/21 05:03:45;;;;;;;2.78;1.98;;;14.20;62.00;;;;;;5062364;28;20048;-78
2021/09/21 05:06:11;;;;;;;2.70;1.88;;;14.20;62.10;;;;;;5062502;28;20058;-78
2021/09/21 05:08:37;;;;;;;3.05;2.30;;;14.20;62.10;;;;;;5096483;28;20052;-79
2021/09/21 05:11:02;;;;;;;3.20;2.30;;;14.20;62.10;;;;;;5078284;28;20032;-79
2021/09/21 05:13:28;;;;;;;3.53;2.33;;;14.20;62.20;;;;;;5062221;28;20035;-81
2021/09/21 05:15:54;;;;;;;2.83;1.90;;;14.20;62.20;;;;;;5096593;28;20368;-82
2021/09/21 05:18:20;;;;;;;2.70;2.03;;;14.20;62.20;;;;;;5079233;28;20462;-81
2021/09/21 05:20:45;;;;;;;3.50;2.30;;;14.20;62.30;;;;;;5045205;28;20039;-79
2021/09/21 05:23:11;;;;;;;3.25;2.05;;;14.20;62.30;;;;;;5062488;28;20461;-81
2021/09/21 05:25:37;;;;;;;3.03;1.98;;;14.20;62.40;;;;;;5079024;28;20526;-80
2021/09/21 05:28:04;;;;;;;3.47;2.17;;;14.20;62.40;;;;;;5078039;28;20032;-81
2021/09/21 05:30:29;;;;;;;3.75;2.38;;;14.20;62.40;;;;;;5061617;28;20040;-80
2021/09/21 05:32:55;;;;;;;3.35;2.35;;;14.20;62.50;;;;;;5096729;28;20028;-80
2021/09/21 05:35:21;;;;;;;2.67;2.10;;;14.20;62.60;;;;;;5078112;28;20390;-81
2021/09/21 05:37:47;;;;;;;3.55;2.35;;;14.20;62.60;;;;;;5061470;28;20043;-80
2021/09/21 05:40:16;;;;;;;3.28;2.38;;;14.20;62.60;;;;;;5062487;28;20081;-80
2021/09/21 05:42:44;;;;;;;3.50;2.40;;;14.10;62.60;;;;;;5061422;28;20136;-81
2021/09/21 05:45:10;;;;;;;2.70;2.13;;;14.20;62.70;;;;;;5061605;28;20434;-80
2021/09/21 05:47:40;;;;;;;3.13;2.33;;;14.10;62.60;;;;;;5061092;28;20033;-80
2021/09/21 05:50:06;;;;;;;2.30;1.92;;;14.10;62.70;;;;;;5077946;28;20032;-81
2021/09/21 05:52:31;;;;;;;3.33;2.20;;;14.10;62.70;;;;;;5061313;28;20120;-81
2021/09/21 05:54:57;;;;;;;2.72;2.15;;;14.10;62.80;;;;;;5028336;28;20086;-81
2021/09/21 05:57:23;;;;;;;3.58;2.47;;;14.20;62.90;;;;;;5060934;28;20034;-81
2021/09/21 05:59:49;;;;;;;3.15;2.28;;;14.10;62.80;;;;;;5060897;28;20040;-81
2021/09/21 06:02:14;;;;;;;2.90;2.38;;;14.20;62.90;;;;;;5044317;28;20034;-81
2021/09/21 06:04:40;;;;;;;3.75;2.42;;;14.10;62.90;;;;;;5078054;28;20093;-81
2021/09/21 06:07:07;;;;;;;2.78;2.38;;;14.10;62.90;;;;;;5077690;28;20036;-81
2021/09/21 06:09:32;;;;;;;3.22;2.33;;;14.10;62.90;;;;;;5077972;28;20476;-81
2021/09/21 06:11:58;;;;;;;2.97;2.22;;;14.10;62.90;;;;;;5077657;28;20162;-81
2021/09/21 06:14:24;;;;;;;3.00;2.28;;;14.20;63.10;;;;;;5061302;28;20039;-84
2021/09/21 06:16:50;;;;;;;3.67;2.22;;;14.20;63.10;;;;;;5060968;28;20617;-82
2021/09/21 06:19:16;;;;;;;3.38;2.33;;;14.20;63.10;;;;;;5060895;28;20042;-80
2021/09/21 06:21:41;;;;;;;3.88;2.40;;;14.20;63.10;;;;;;5060909;28;20028;-82
2021/09/21 06:24:07;;;;;;;3.80;2.50;;;14.10;63.10;;;;;;5044711;28;20059;-81
2021/09/21 06:26:33;;;;;;;4.43;2.28;;;14.20;63.20;;;;;;5061478;28;20036;-82
2021/09/21 06:29:00;;;;;;;4.25;2.67;;;14.20;63.20;;;;;;5095557;28;20036;-81
2021/09/21 06:31:26;;;;;;;3.45;2.42;;;14.20;63.30;;;;;;5095460;28;20058;-85
2021/09/21 06:33:52;;;;;;;2.97;2.10;;;14.20;63.30;;;;;;5077703;28;20024;-82
2021/09/21 06:36:19;;;;;;;3.58;2.40;;;14.20;63.30;;;;;;5060154;28;20052;-80
2021/09/21 06:38:45;;;;;;;3.63;2.67;;;14.20;63.30;;;;;;5060405;28;20040;-81
2021/09/21 06:41:10;;;;;;;3.13;2.20;;;14.20;63.40;;;;;;5076874;28;20563;-80
2021/09/21 06:43:36;;;;;;;3.60;2.50;;;14.20;63.40;;;;;;5027171;28;20123;-81
2021/09/21 06:46:02;;;;;;;3.10;2.30;;;14.20;63.40;;;;;;5060229;28;20032;-82
2021/09/21 06:48:28;;;;;;;4.55;2.78;;;14.20;63.40;;;;;;5060895;28;20032;-83
2021/09/21 06:50:54;;;;;;;3.85;2.53;;;14.20;64.10;;;;;;5060837;28;20479;-81
2021/09/21 06:53:20;;;;;;;3.38;2.40;;;14.20;63.50;;;;;;5094606;28;20392;-82
2021/09/21 06:55:46;;;;;;;3.45;2.40;;;14.20;63.50;;;;;;5076938;28;20028;-81
2021/09/21 06:58:12;;;;;;;4.10;2.60;;;14.30;63.50;;;;;;5076544;28;20028;-81
2021/09/21 07:00:40;;;;;;;3.63;2.45;;;14.30;63.50;;;;;;5076144;28;20055;-81
2021/09/21 07:03:07;;;;;;;3.38;2.38;;;14.30;63.60;;;;;;5076437;28;20497;-81
2021/09/21 07:05:34;;;;;;;3.70;2.28;;;14.30;63.60;;;;;;5076655;28;20032;-81
2021/09/21 07:08:00;;;;;;;3.35;2.40;;;14.30;63.60;;;;;;5059783;28;20063;-81
2021/09/21 07:10:26;;;;;;;4.65;2.75;;;14.30;63.60;;;;;;5060601;28;20032;-82
2021/09/21 07:12:54;;;;;;;3.53;2.42;;;14.30;63.70;;;;;;5076074;28;20117;-82
2021/09/21 07:15:22;;;;;;;3.35;2.28;;;14.40;63.80;;;;;;5044054;28;20043;-82
2021/09/21 07:17:53;;;;;;;3.42;2.25;;;14.40;63.80;;;;;;5076104;28;20206;-81
2021/09/21 07:20:20;;;;;;;2.88;2.10;;;14.40;63.70;;;;;;5094523;28;20444;-81
2021/09/21 07:22:46;;;;;;;3.50;2.22;;;14.40;63.70;;;;;;5076073;28;20447;-81
2021/09/21 07:25:12;;;;;;;3.83;2.30;;;14.40;63.80;;;;;;5075633;28;20076;-82
2021/09/21 07:27:38;;;;;;;3.95;2.35;;;14.50;63.80;;;;;;5094142;28;20024;-81
2021/09/21 07:30:04;;;;;;;3.75;2.20;;;14.50;63.80;;;;;;5059494;28;20029;-82
2021/09/21 07:32:30;;;;;;;3.45;2.30;;;14.50;63.90;;;;;;5075870;28;20039;-81
2021/09/21 07:34:56;;;;;;;3.88;2.80;;;14.50;63.90;;;;;;5059358;28;20352;-81
2021/09/21 07:37:22;;;;;;;3.63;2.50;;;14.50;63.90;;;;;;5058999;28;20020;-82
2021/09/21 07:39:48;;;;;;;3.72;2.45;;;14.50;63.90;;;;;;5059197;28;20166;-81
2021/09/21 07:42:17;;;;;;;3.70;2.47;;;14.60;63.90;;;;;;5042930;28;20118;-81
2021/09/21 07:44:43;;;;;;;2.95;2.28;;;14.60;63.90;;;;;;5059186;28;20460;-81
2021/09/21 07:47:09;;;;;;;4.07;2.38;;;14.60;63.90;;;;;;5075968;28;20113;-81
2021/09/21 07:49:34;;;;;;;3.63;2.47;;;14.60;63.90;;;;;;5093823;28;20075;-81
2021/09/21 07:52:00;;;;;;;3.67;2.47;;;14.70;64.00;;;;;;5059068;28;20093;-82
2021/09/21 07:54:26;;;;;;;3.42;2.22;;;14.70;64.00;;;;;;5075572;28;20142;-81
2021/09/21 07:56:51;;;;;;;2.92;2.15;;;14.70;63.90;;;;;;5059267;28;20031;-81
2021/09/21 07:59:17;;;;;;;3.83;2.40;;;14.70;63.90;;;;;;5075990;28;20391;-80
2021/09/21 08:01:43;;;;;;;4.10;2.92;;;14.70;63.90;;;;;;5059005;28;20034;-81
2021/09/21 08:04:09;;;;;;;3.83;2.42;;;14.80;64.10;;;;;;5058998;28;20409;-81
2021/09/21 08:06:35;;;;;;;3.33;2.15;;;14.80;64.10;;;;;;5058850;28;20036;-83
2021/09/21 08:09:00;;;;;;;3.95;2.38;;;14.80;64.00;;;;;;5025301;28;20081;-82
2021/09/21 08:11:29;;;;;;;3.15;2.08;;;14.90;64.10;;;;;;5059265;28;20036;-81
2021/09/21 08:13:55;;;;;;;3.92;2.83;;;14.90;64.10;;;;;;5075578;28;20040;-80
2021/09/21 08:16:21;;;;;;;3.75;2.30;;;14.90;64.10;;;;;;5076154;28;20024;-82
2021/09/21 08:18:47;;;;;;;3.78;2.30;;;14.90;64.10;;;;;;5059663;28;20032;-81
2021/09/21 08:21:13;;;;;;;3.35;2.45;;;14.90;64.10;;;;;;5058683;28;20434;-81
2021/09/21 08:23:38;;;;;;;3.80;2.70;;;15.00;64.10;;;;;;5075639;28;20035;-82
2021/09/21 08:26:04;;;;;;;3.70;2.55;;;15.00;64.20;;;;;;5059491;28;20132;-81
2021/09/21 08:28:30;;;;;;;3.42;2.38;;;15.00;64.20;;;;;;5058647;28;20032;-81
2021/09/21 08:30:56;;;;;;;3.92;2.30;;;15.10;64.30;;;;;;5041959;28;20081;-81
2021/09/21 08:33:22;;;;;;;3.20;2.35;;;15.10;64.20;;;;;;5075581;28;20039;-81
2021/09/21 08:35:48;;;;;;;3.60;2.55;;;15.10;64.20;;;;;;5058501;28;20032;-81
2021/09/21 08:38:14;;;;;;;3.42;2.35;;;15.10;64.20;;;;;;5062728;28;20032;-81
2021/09/21 08:40:40;;;;;;;3.53;2.38;;;15.20;64.30;;;;;;5062738;28;20126;-81
2021/09/21 08:43:06;;;;;;;3.45;2.25;;;15.20;64.30;;;;;;5046000;28;20059;-81
2021/09/21 08:45:31;;;;;;;2.70;2.17;;;15.20;64.30;;;;;;5062975;28;20043;-81
2021/09/21 08:47:57;;;;;;;3.90;2.50;;;15.30;64.40;;;;;;5062185;28;20132;-81
2021/09/21 08:50:24;;;;;;;2.75;2.10;;;15.30;64.40;;;;;;5046244;28;20043;-81
2021/09/21 08:52:51;;;;;;;3.10;2.28;;;15.30;64.30;;;;;;5062638;28;20035;-82
2021/09/21 08:55:17;;;;;;;2.85;2.17;;;15.40;64.30;;;;;;5079095;28;20024;-82
2021/09/21 08:57:43;;;;;;;3.65;2.40;;;15.40;64.30;;;;;;5062348;28;20032;-82
2021/09/21 09:00:21;;;;;;;3.10;2.20;;;15.40;64.20;;;;;;5062421;28;20028;-81
2021/09/21 09:02:47;;;;;;;2.78;2.05;;;15.50;64.30;;;;;;5079047;28;20039;-81
2021/09/21 09:05:13;;;;;;;3.20;2.10;;;15.60;64.20;;;;;;5062269;28;20035;-82
2021/09/21 09:07:51;;;;;;;2.42;2.00;;;15.60;64.10;;;;;;5028926;28;20029;-83
2021/09/21 09:10:18;;;;;;;2.30;1.95;;;15.60;64.10;;;;;;5078551;28;20052;-82
2021/09/21 09:12:45;;;;;;;2.30;1.88;;;15.70;64.00;;;;;;5079064;28;20035;-83
2021/09/21 09:15:20;;;;;;;2.72;2.15;;;15.80;64.00;;;;;;5062330;28;20030;-83
2021/09/21 09:17:55;;;;;;;3.53;2.30;;;15.80;63.90;;;;;;5078554;28;20035;-82
2021/09/21 09:20:42;;;;;;;2.85;2.08;;;15.80;63.90;;;;;;5078719;28;20531;-83
2021/09/21 09:23:09;;;;;;;3.08;2.15;;;15.90;63.90;;;;;;5062533;28;20024;-83
2021/09/21 09:25:42;;;;;;;2.95;1.90;;;16.00;63.70;;;;;;5096993;28;20067;-82
2021/09/21 09:28:20;;;;;;;2.25;1.67;;;16.00;63.80;;;;;;5078797;28;20093;-82
2021/09/21 09:30:46;;;;;;;3.22;2.00;;;16.00;63.80;;;;;;5079019;28;20035;-83
2021/09/21 09:33:13;;;;;;;2.85;2.10;;;16.10;63.70;;;;;;5078340;28;20086;-82
2021/09/21 09:35:43;;;;;;;2.08;1.80;;;16.20;63.70;;;;;;5078265;28;20024;-82
2021/09/21 09:38:12;;;;;;;3.13;2.05;;;16.20;63.60;;;;;;5061403;28;20472;-82
2021/09/21 09:40:45;;;;;;;2.58;1.95;;;16.30;63.60;;;;;;5096397;28;20073;-82
2021/09/21 09:43:15;;;;;;;2.58;1.90;;;16.30;63.60;;;;;;5096578;28;20142;-82
2021/09/21 09:45:43;;;;;;;3.50;2.10;;;16.40;63.60;;;;;;5078193;28;20468;-82
2021/09/21 09:48:14;;;;;;;2.33;1.90;;;16.40;63.60;;;;;;5060860;28;20036;-82
2021/09/21 09:50:42;;;;;;;2.85;1.85;;;16.60;63.70;;;;;;5061745;28;20107;-82
2021/09/21 09:53:13;;;;;;;2.00;1.50;;;16.60;63.70;;;;;;5096170;28;20025;-83
2021/09/21 09:55:42;;;;;;;2.50;1.80;;;16.70;63.80;;;;;;5078354;28;20028;-83
2021/09/21 09:58:08;;;;;;;1.98;1.75;;;16.70;63.70;;;;;;5078138;28;20456;-83
2021/09/21 10:00:35;;;;;;;2.20;1.75;;;16.80;63.90;;;;;;5061409;28;20411;-82
2021/09/21 10:03:02;;;;;;;3.42;1.80;;;16.80;63.70;;;;;;5060849;28;20082;-82
2021/09/21 10:05:30;;;;;;;1.80;1.48;;;16.90;63.70;;;;;;5061226;28;20024;-83
2021/09/21 10:07:57;;;;;;;2.25;1.65;;;17.00;63.60;;;;;;5060864;28;20447;-82
2021/09/21 10:10:27;;;;;;;2.45;1.60;;;17.00;63.50;;;;;;5061118;28;20069;-82
2021/09/21 10:12:53;;;;;;;1.90;1.50;;;17.10;63.50;;;;;;5061352;28;20044;-83
2021/09/21 10:15:20;;;;;;;1.80;1.52;;;17.20;63.50;;;;;;5061009;28;20032;-82
2021/09/21 10:17:56;;;;;;;2.25;1.75;;;17.20;63.40;;;;;;5060888;28;20064;-83
2021/09/21 10:20:33;;;;;;;2.30;1.70;;;17.30;63.40;;;;;;5060778;28;20032;-84
2021/09/21 10:23:00;;;;;;;1.88;1.60;;;17.40;63.40;;;;;;5078139;28;20051;-83
2021/09/21 10:25:35;;;;;;;1.63;1.30;;;17.50;63.30;;;;;;5077343;28;20052;-84
2021/09/21 10:28:09;;;;;;;2.58;1.65;;;17.50;63.30;;;;;;5095355;28;20032;-82
2021/09/21 10:30:35;;;;;;;1.60;1.50;;;17.60;63.20;;;;;;5095366;28;20464;-83
2021/09/21 10:33:01;;;;;;;1.77;1.55;;;17.70;63.20;;;;;;5078070;28;20028;-83
2021/09/21 10:35:30;;;;;;;1.90;1.33;;;17.70;63.10;;;;;;5061468;28;20085;-82
2021/09/21 10:38:07;;;;;;;2.17;1.50;;;17.80;63.20;;;;;;5077470;28;20380;-82
2021/09/21 10:40:37;;;;;;;1.60;1.50;;;17.90;63.30;;;;;;5095376;28;20020;-83
2021/09/21 10:43:08;;;;;;;2.90;1.70;;;17.90;63.10;;;;;;5060701;28;20472;-83
2021/09/21 10:45:34;;;;;;;2.42;1.58;;;18.00;63.20;;;;;;5095092;28;20094;-84
2021/09/21 10:48:00;;;;;;;2.33;1.50;;;18.10;63.10;;;;;;5095449;28;20032;-83
2021/09/21 10:50:27;;;;;;;1.73;1.52;;;18.20;63.20;;;;;;5043854;28;20043;-83
2021/09/21 10:53:08;;;;;;;1.58;1.35;;;18.20;63.10;;;;;;5060121;28;20039;-84
2021/09/21 10:55:38;;;;;;;1.50;1.40;;;18.30;63.40;;;;;;5077510;28;20085;-82
2021/09/21 10:58:16;;;;;;;1.90;1.42;;;18.40;63.30;;;;;;5077282;28;20040;-83
2021/09/21 11:00:41;;;;;;;1.35;1.20;;;18.40;63.20;;;;;;5077153;28;20433;-83
2021/09/21 11:03:12;;;;;;;1.73;1.52;;;18.50;63.20;;;;;;5076775;28;20020;-82
2021/09/21 11:05:38;;;;;;;2.08;1.50;;;18.50;63.30;;;;;;5077026;28;20107;-83
2021/09/21 11:08:08;;;;;;;1.73;1.30;;;18.60;63.20;;;;;;5076515;28;20111;-82
2021/09/21 11:10:36;;;;;;;1.88;1.50;;;18.60;63.20;;;;;;5094609;28;20487;-83
2021/09/21 11:13:12;;;;;;;2.08;1.65;;;18.70;63.30;;;;;;5059990;28;20112;-83
2021/09/21 11:15:39;;;;;;;1.27;1.17;;;18.80;63.40;;;;;;5077065;28;20024;-82
2021/09/21 11:18:10;;;;;;;2.08;1.55;;;18.80;63.40;;;;;;5060750;28;20036;-82
2021/09/21 11:20:47;;;;;;;1.40;1.30;;;18.80;63.50;;;;;;5077095;28;20505;-83
2021/09/21 11:23:15;;;;;;;2.10;1.42;;;18.90;63.60;;;;;;5059524;28;20028;-82
2021/09/21 11:25:42;;;;;;;1.55;1.30;;;18.90;63.40;;;;;;5059912;28;20023;-82
2021/09/21 11:28:08;;;;;;;1.50;1.40;;;18.90;63.50;;;;;;5076244;28;20456;-82
2021/09/21 11:30:34;;;;;;;1.88;1.25;;;19.00;63.60;;;;;;5059314;28;20057;-83
2021/09/21 11:33:14;;;;;;;1.48;1.30;;;19.10;63.60;;;;;;5058897;28;20016;-82
2021/09/21 11:35:48;;;;;;;1.75;1.50;;;19.10;63.80;;;;;;5075988;28;20073;-81
2021/09/21 11:38:15;;;;;;;2.03;1.40;;;19.10;63.70;;;;;;5060124;28;20035;-82
2021/09/21 11:40:43;;;;;;;1.63;1.17;;;19.10;63.70;;;;;;5093880;28;20758;-82
2021/09/21 11:43:11;;;;;;;2.00;1.48;;;19.20;63.90;;;;;;5059506;28;20024;-83
2021/09/21 11:45:37;;;;;;;1.65;1.42;;;19.20;64.00;;;;;;5076652;28;20032;-83
2021/09/21 11:48:03;;;;;;;2.03;1.45;;;19.20;64.10;;;;;;5075732;28;20024;-83
2021/09/21 11:50:32;;;;;;;1.60;1.30;;;19.30;64.20;;;;;;5042803;28;20028;-82
2021/09/21 11:53:03;;;;;;;1.75;1.48;;;19.30;64.30;;;;;;5059860;28;20059;-83
2021/09/21 11:55:32;;;;;;;1.63;1.30;;;19.30;64.40;;;;;;5076829;28;20028;-83
2021/09/21 11:57:58;;;;;;;2.03;1.40;;;19.30;64.40;;;;;;5076470;28;20032;-83
2021/09/21 12:00:33;;;;;;;1.42;1.33;;;19.40;64.50;;;;;;5059560;28;20029;-82
2021/09/21 12:03:08;;;;;;;1.63;1.50;;;19.40;64.60;;;;;;5059268;28;20024;-82
2021/09/21 12:05:35;;;;;;;2.20;1.58;;;19.40;64.60;;;;;;5059416;28;20065;-81
2021/09/21 12:08:08;;;;;;;3.33;1.80;;;19.50;64.60;;;;;;5075317;28;20127;-83
2021/09/21 12:10:36;;;;;;;1.42;1.20;;;19.50;64.70;;;;;;5062019;28;20101;-83
2021/09/21 12:13:04;;;;;;;1.83;1.50;;;19.50;64.80;;;;;;5065637;28;20118;-83
2021/09/21 12:15:32;;;;;;;1.77;1.40;;;19.60;65.00;;;;;;5082540;28;20024;-82
2021/09/21 12:18:01;;;;;;;2.08;1.70;;;19.60;65.00;;;;;;5082658;28;20564;-82
2021/09/21 12:20:28;;;;;;;1.65;1.50;;;19.60;65.00;;;;;;5065366;28;20058;-83
2021/09/21 12:22:54;;;;;;;1.95;1.60;;;19.60;65.00;;;;;;5100174;28;20058;-82
2021/09/21 12:25:22;;;;;;;2.20;1.80;;;19.60;64.90;;;;;;5065689;28;20450;-83
2021/09/21 12:27:54;;;;;;;2.58;1.60;;;19.70;65.00;;;;;;5081936;28;20031;-83
2021/09/21 12:30:25;;;;;;;1.48;1.23;;;19.70;65.00;;;;;;5100016;28;20066;-83
2021/09/21 12:33:06;;;;;;;1.77;1.50;;;19.80;65.00;;;;;;5082469;28;20111;-82
2021/09/21 12:35:35;;;;;;;1.77;1.50;;;19.80;65.10;;;;;;5065552;28;20521;-82
2021/09/21 12:38:14;;;;;;;1.60;1.50;;;19.80;65.00;;;;;;5066165;28;20051;-82
2021/09/21 12:41:02;;;;;;;1.88;1.55;;;19.80;65.10;;;;;;5082319;28;20503;-82
2021/09/21 12:43:32;;;;;;;1.88;1.30;;;19.90;65.10;;;;;;5100013;28;20028;-83
2021/09/21 12:46:03;;;;;;;1.60;1.40;;;19.90;65.00;;;;;;5065408;28;20024;-82
2021/09/21 12:48:32;;;;;;;1.63;1.50;;;19.90;65.00;;;;;;5082120;28;20036;-82
2021/09/21 12:51:00;;;;;;;1.70;1.35;;;20.00;65.00;;;;;;5082110;28;20380;-82
2021/09/21 12:53:27;;;;;;;2.45;1.92;;;20.00;65.00;;;;;;5065085;28;20024;-84
2021/09/21 12:56:13;;;;;;;1.25;1.15;;;20.00;65.00;;;;;;5065262;28;20032;-82
2021/09/21 12:58:41;;;;;;;1.88;1.50;;;20.00;65.10;;;;;;5081932;28;20082;-82
2021/09/21 13:01:12;;;;;;;1.38;1.27;;;20.10;65.00;;;;;;5065518;28;20032;-83
2021/09/21 13:03:38;;;;;;;1.90;1.70;;;20.10;65.70;;;;;;5082381;28;20031;-82